Time;durP1;ratioP1;P1;durP2;ratioP2;P2;SDS_P1;SDS_P2;PMS_P1;PMS_P2;Temp;Humidity;BMP_temperature;BMP_pressure;BME280_temperature;BME280_humidity;BME280_pressure;Samples;Min_cycle;Max_cycle;Signal;HPM_P1;HPM_P2
2021/09/11 00:00:38;;;;;;;64.40;59.72;;;;;;;8.74;100.00;101328.75;5060193;28;20060;-79
2021/09/11 00:03:06;;;;;;;77.25;71.72;;;;;;;8.74;100.00;101334.06;5071162;28;20064;-78
2021/09/11 00:05:33;;;;;;;67.82;62.90;;;;;;;8.31;100.00;101328.41;5072728;28;20048;-81
2021/09/11 00:07:59;;;;;;;62.13;57.58;;;;;;;8.43;100.00;101328.84;5075500;28;20492;-83
2021/09/11 00:10:26;;;;;;;59.38;54.88;;;;;;;8.44;100.00;101328.69;5075422;28;20056;-79
2021/09/11 00:12:53;;;;;;;59.50;54.92;;;;;;;8.47;100.00;101330.97;5075338;28;20044;-78
2021/09/11 00:15:20;;;;;;;63.15;58.35;;;;;;;8.43;100.00;101320.91;5075389;28;20106;-79
2021/09/11 00:17:48;;;;;;;62.00;57.55;;;;;;;7.79;100.00;101331.69;5075573;28;20052;-81
2021/09/11 00:20:16;;;;;;;53.47;49.20;;;;;;;8.00;100.00;101323.97;5066563;28;20053;-82
2021/09/11 00:22:43;;;;;;;56.58;51.63;;;;;;;8.04;100.00;101332.38;5075783;28;20124;-78
2021/09/11 00:25:11;;;;;;;68.15;63.13;;;;;;;8.33;100.00;101331.69;5076473;28;20059;-81
2021/09/11 00:27:38;;;;;;;61.17;56.97;;;;;;;8.57;100.00;101329.91;5074516;28;20117;-81
2021/09/11 00:30:06;;;;;;;65.28;60.47;;;;;;;8.62;100.00;101332.81;5075289;28;20056;-79
2021/09/11 00:32:32;;;;;;;60.90;56.47;;;;;;;8.68;100.00;101317.06;5072778;28;20500;-78
2021/09/11 00:34:59;;;;;;;64.93;60.33;;;;;;;8.44;100.00;101318.09;5075329;28;20048;-79
2021/09/11 00:37:27;;;;;;;66.65;61.95;;;;;;;8.39;100.00;101317.78;5075009;28;20059;-78
2021/09/11 00:39:54;;;;;;;56.00;51.83;;;;;;;8.35;100.00;101312.97;5076196;28;20049;-78
2021/09/11 00:42:21;;;;;;;63.53;59.33;;;;;;;8.44;100.00;101315.44;5074991;28;20052;-81
2021/09/11 00:44:48;;;;;;;60.05;55.53;;;;;;;8.51;100.00;101309.44;5074938;28;20060;-79
2021/09/11 00:47:14;;;;;;;59.22;54.78;;;;;;;8.33;100.00;101310.53;5074879;28;20115;-79
2021/09/11 00:49:41;;;;;;;59.05;54.75;;;;;;;8.29;100.00;101311.03;5074859;28;20256;-78
2021/09/11 00:52:08;;;;;;;73.97;69.25;;;;;;;8.29;100.00;101316.34;5074770;28;20529;-82
2021/09/11 00:54:36;;;;;;;79.57;74.68;;;;;;;8.19;100.00;101314.75;5072200;28;20040;-78
2021/09/11 00:57:04;;;;;;;72.93;67.78;;;;;;;8.07;100.00;101316.13;5062937;28;20400;-78
2021/09/11 00:59:31;;;;;;;67.50;62.80;;;;;;;8.10;100.00;101312.31;5073919;28;20055;-82
2021/09/11 01:01:57;;;;;;;64.82;60.30;;;;;;;8.44;100.00;101312.81;5073979;28;20409;-79
2021/09/11 01:04:27;;;;;;;64.60;60.20;;;;;;;8.10;100.00;101307.03;5074389;28;20057;-81
2021/09/11 01:06:54;;;;;;;69.18;64.38;;;;;;;8.27;100.00;101311.22;5073718;28;20472;-81
2021/09/11 01:09:21;;;;;;;61.10;56.75;;;;;;;8.21;100.00;101315.41;5075444;28;20064;-81
2021/09/11 01:11:50;;;;;;;65.78;60.95;;;;;;;8.22;100.00;101314.38;5074206;28;20048;-81
2021/09/11 01:14:17;;;;;;;63.22;58.97;;;;;;;8.16;100.00;101320.38;5074622;28;20055;-82
2021/09/11 01:16:44;;;;;;;63.30;58.45;;;;;;;8.16;100.00;101308.97;5074451;28;20047;-80
2021/09/11 01:19:11;;;;;;;56.75;51.83;;;;;;;8.18;100.00;101305.16;5074602;28;20125;-81
2021/09/11 01:21:38;;;;;;;64.20;59.88;;;;;;;8.00;100.00;101325.78;5074044;28;20055;-79
2021/09/11 01:24:06;;;;;;;60.22;55.63;;;;;;;8.14;100.00;101324.19;5073886;28;20122;-78
2021/09/11 01:26:33;;;;;;;71.15;65.90;;;;;;;7.79;100.00;101323.75;5073151;28;20059;-78
2021/09/11 01:29:00;;;;;;;77.53;71.75;;;;;;;7.85;100.00;101328.34;5073915;28;20053;-78
2021/09/11 01:31:32;;;;;;;63.42;58.78;;;;;;;7.97;100.00;101328.78;5073318;28;20044;-81
2021/09/11 01:33:59;;;;;;;72.20;67.20;;;;;;;7.72;100.00;101330.72;5074310;28;20440;-82
2021/09/11 01:36:26;;;;;;;72.35;67.00;;;;;;;7.65;100.00;101330.56;5074083;28;20056;-80
2021/09/11 01:38:52;;;;;;;66.75;62.35;;;;;;;7.91;100.00;101332.13;5073642;28;20539;-81
2021/09/11 01:41:21;;;;;;;64.00;59.50;;;;;;;7.57;100.00;101334.09;5074018;28;20056;-78
2021/09/11 01:43:47;;;;;;;61.88;57.67;;;;;;;7.66;100.00;101337.53;5073381;28;20044;-78
2021/09/11 01:46:14;;;;;;;61.80;57.38;;;;;;;7.74;100.00;101334.81;5072719;28;20052;-79
2021/09/11 01:48:41;;;;;;;70.97;66.13;;;;;;;7.75;100.00;101331.19;5073753;28;20048;-81
2021/09/11 01:51:08;;;;;;;75.57;70.72;;;;;;;7.79;100.00;101337.78;5073497;28;20127;-81
2021/09/11 01:53:35;;;;;;;60.22;56.03;;;;;;;7.68;100.00;101340.78;5071843;28;20059;-78
2021/09/11 01:56:01;;;;;;;63.55;59.15;;;;;;;7.68;100.00;101337.34;5074423;28;20044;-80
2021/09/11 01:58:29;;;;;;;62.15;57.75;;;;;;;7.54;100.00;101334.44;5069389;28;20048;-82
2021/09/11 02:00:56;;;;;;;58.50;54.08;;;;;;;7.46;100.00;101334.44;5160434;22;20753;-89
2021/09/11 02:03:24;;;;;;;68.50;63.40;;;;;;;7.52;100.00;101332.94;5016706;28;20806;-88
2021/09/11 02:05:52;;;;;;;65.32;60.75;;;;;;;7.48;100.00;101336.94;5031623;28;20049;-88
2021/09/11 02:08:20;;;;;;;81.47;75.88;;;;;;;6.99;100.00;101332.59;5016689;28;20041;-88
2021/09/11 02:10:47;;;;;;;81.15;75.75;;;;;;;7.26;100.00;101336.66;5011651;28;20053;-88
2021/09/11 02:13:17;;;;;;;81.82;76.55;;;;;;;7.54;100.00;101331.78;5029439;28;20045;-88
2021/09/11 02:15:49;;;;;;;70.18;64.68;;;;;;;7.31;100.00;101339.59;5018962;28;20050;-88
2021/09/11 02:18:17;;;;;;;73.75;68.25;;;;;;;6.97;100.00;101339.84;5017456;28;20481;-88
2021/09/11 02:20:44;;;;;;;64.80;59.90;;;;;;;6.91;100.00;101342.34;5029752;28;20103;-87
2021/09/11 02:23:12;;;;;;;75.07;69.15;;;;;;;7.11;100.00;101344.44;5024651;28;20116;-88
2021/09/11 02:25:41;;;;;;;61.25;56.22;;;;;;;7.25;100.00;101350.84;5031726;28;20049;-88
2021/09/11 02:28:09;;;;;;;71.45;66.22;;;;;;;7.42;100.00;101349.00;5030027;28;20053;-88
2021/09/11 02:30:36;;;;;;;65.15;60.20;;;;;;;7.20;100.00;101349.69;5027352;28;20502;-88
2021/09/11 02:33:11;;;;;;;58.53;53.92;;;;;;;7.22;100.00;101345.09;5022334;28;20055;-88
2021/09/11 02:35:39;;;;;;;64.70;60.17;;;;;;;7.57;100.00;101339.38;5030896;28;20049;-88
2021/09/11 02:38:07;;;;;;;56.50;52.45;;;;;;;7.70;100.00;101338.00;5029172;28;20049;-88
2021/09/11 02:40:36;;;;;;;63.88;59.47;;;;;;;7.93;100.00;101333.59;5016455;28;20430;-88
2021/09/11 02:43:04;;;;;;;50.13;46.42;;;;;;;8.13;100.00;101333.97;5015554;28;20104;-88
2021/09/11 02:45:32;;;;;;;60.75;56.13;;;;;;;7.91;100.00;101340.06;5023457;28;20053;-88
2021/09/11 02:48:01;;;;;;;55.40;51.20;;;;;;;7.89;100.00;101342.03;5024288;28;20116;-88
2021/09/11 02:50:31;;;;;;;65.28;60.58;;;;;;;7.97;100.00;101342.00;5018035;28;20050;-88
2021/09/11 02:52:59;;;;;;;64.97;60.72;;;;;;;8.16;100.00;101335.44;5015365;28;20427;-88
2021/09/11 02:55:26;;;;;;;63.38;58.28;;;;;;;7.91;100.00;101340.88;5030348;28;20057;-87
2021/09/11 02:57:54;;;;;;;71.38;66.88;;;;;;;7.93;100.00;101330.94;5022561;28;20111;-88
2021/09/11 03:00:22;;;;;;;69.43;64.20;;;;;;;7.98;100.00;101338.34;5011368;28;20057;-88
2021/09/11 03:02:50;;;;;;;69.75;64.65;;;;;;;7.26;100.00;101349.88;5011369;28;20502;-88
2021/09/11 03:05:17;;;;;;;69.63;64.40;;;;;;;7.33;100.00;101345.56;5022512;28;20053;-88
2021/09/11 03:07:50;;;;;;;59.53;55.33;;;;;;;7.52;100.00;101346.97;5022951;28;20042;-88
2021/09/11 03:10:18;;;;;;;60.22;55.92;;;;;;;7.89;100.00;101344.69;5011086;28;20050;-86
2021/09/11 03:12:46;;;;;;;54.47;50.28;;;;;;;7.94;100.00;101345.00;5022956;28;20454;-88
2021/09/11 03:15:13;;;;;;;51.17;46.88;;;;;;;8.12;100.00;101344.75;5028577;28;20107;-88
2021/09/11 03:17:42;;;;;;;60.13;56.03;;;;;;;8.10;100.00;101341.44;5023762;28;20054;-89
2021/09/11 03:20:10;;;;;;;61.25;56.75;;;;;;;8.10;100.00;101344.91;5011190;28;20042;-88
2021/09/11 03:22:37;;;;;;;60.22;56.17;;;;;;;8.22;100.00;101338.22;5011381;28;20466;-88
2021/09/11 03:25:13;;;;;;;55.95;51.92;;;;;;;8.31;100.00;101338.97;5023309;28;20046;-88
2021/09/11 03:27:41;;;;;;;59.97;55.70;;;;;;;7.49;100.00;101338.56;5021707;28;20046;-88
2021/09/11 03:30:10;;;;;;;50.05;45.92;;;;;;;7.89;100.00;101334.91;5023321;28;20053;-88
2021/09/11 03:32:38;;;;;;;66.20;61.20;;;;;;;7.24;100.00;101353.69;5025563;28;20504;-87
2021/09/11 03:35:07;;;;;;;65.63;60.78;;;;;;;7.58;100.00;101353.41;5015150;28;20046;-88
2021/09/11 03:37:34;;;;;;;58.92;54.47;;;;;;;7.50;100.00;101361.34;5016911;28;20057;-88
2021/09/11 03:40:03;;;;;;;64.35;59.08;;;;;;;7.51;100.00;101347.16;5032466;28;20050;-88
2021/09/11 03:42:36;;;;;;;56.90;52.33;;;;;;;7.57;100.00;101351.78;5023037;28;20053;-88
2021/09/11 03:45:04;;;;;;;52.58;47.80;;;;;;;7.45;100.00;101350.47;5021859;28;20060;-88
2021/09/11 03:47:31;;;;;;;54.13;49.92;;;;;;;7.37;100.00;101355.78;5019406;28;20053;-88
2021/09/11 03:50:02;;;;;;;54.80;50.60;;;;;;;7.63;100.00;101356.38;5014914;28;20049;-88
2021/09/11 03:52:32;;;;;;;54.20;50.00;;;;;;;7.51;100.00;101352.44;5014505;28;20112;-88
2021/09/11 03:54:59;;;;;;;53.60;49.40;;;;;;;7.96;100.00;101356.25;5031992;28;20046;-88
2021/09/11 03:57:29;;;;;;;53.78;49.95;;;;;;;8.02;100.00;101352.91;5023149;28;20049;-88
2021/09/11 04:00:06;;;;;;;49.08;45.47;;;;;;;7.79;100.00;101355.47;5022456;28;20057;-88
2021/09/11 04:02:33;;;;;;;45.55;42.13;;;;;;;7.80;100.00;101355.28;5025049;28;20050;-87
2021/09/11 04:05:01;;;;;;;41.80;38.40;;;;;;;7.16;100.00;101357.13;5015112;28;20499;-88
2021/09/11 04:07:28;;;;;;;45.83;42.13;;;;;;;7.71;100.00;101356.31;5016266;28;20046;-87
2021/09/11 04:09:56;;;;;;;48.25;44.65;;;;;;;7.57;100.00;101363.16;5016816;28;20049;-88
2021/09/11 04:12:23;;;;;;;52.03;48.00;;;;;;;7.53;100.00;101358.38;5070180;23;20060;-80
2021/09/11 04:14:50;;;;;;;46.95;43.15;;;;;;;7.33;100.00;101355.31;5025353;28;20068;-84
2021/09/11 04:17:18;;;;;;;45.67;42.22;;;;;;;7.92;100.00;101358.38;5023591;28;20053;-81
2021/09/11 04:19:45;;;;;;;41.45;38.35;;;;;;;8.21;100.00;101355.09;5032814;28;20119;-81
2021/09/11 04:22:11;;;;;;;48.28;44.47;;;;;;;8.26;100.00;101358.06;5033240;28;20056;-78
2021/09/11 04:24:38;;;;;;;54.28;50.25;;;;;;;8.24;100.00;101354.75;5033358;28;20064;-79
2021/09/11 04:27:05;;;;;;;50.85;47.15;;;;;;;8.31;100.00;101352.22;5034070;28;20068;-78
2021/09/11 04:29:32;;;;;;;48.58;45.08;;;;;;;8.36;100.00;101355.16;5033174;28;20111;-77
2021/09/11 04:31:59;;;;;;;51.38;47.65;;;;;;;8.21;100.00;101351.63;5033532;28;20127;-78
2021/09/11 04:34:27;;;;;;;49.40;45.92;;;;;;;8.04;100.00;101361.47;5032811;28;20434;-78
2021/09/11 04:36:54;;;;;;;52.65;48.92;;;;;;;7.95;100.00;101359.88;5033034;28;20064;-78
2021/09/11 04:39:20;;;;;;;46.45;43.05;;;;;;;8.56;100.00;101358.19;5034272;28;20064;-80
2021/09/11 04:41:47;;;;;;;45.50;42.20;;;;;;;8.81;100.00;101361.50;5033267;28;20130;-81
2021/09/11 04:44:14;;;;;;;45.00;41.85;;;;;;;8.81;100.00;101360.66;5032087;28;20361;-78
2021/09/11 04:46:41;;;;;;;45.75;42.75;;;;;;;8.71;100.00;101360.88;5033710;28;20108;-77
2021/09/11 04:49:08;;;;;;;39.63;36.92;;;;;;;8.80;100.00;101362.47;5033937;28;20049;-80
2021/09/11 04:51:36;;;;;;;39.25;35.78;;;;;;;8.82;100.00;101359.66;5033555;28;20406;-79
2021/09/11 04:54:03;;;;;;;43.38;39.85;;;;;;;8.82;100.00;101364.94;5032556;28;20466;-81
2021/09/11 04:56:30;;;;;;;38.65;35.78;;;;;;;8.64;100.00;101363.44;5033140;28;20072;-78
2021/09/11 04:58:57;;;;;;;41.72;38.40;;;;;;;8.50;100.00;101364.19;5033120;28;20064;-78
2021/09/11 05:01:23;;;;;;;38.05;34.60;;;;;;;8.77;100.00;101365.47;5033696;28;20135;-81
2021/09/11 05:03:50;;;;;;;35.75;32.92;;;;;;;9.21;100.00;101363.94;5033365;28;20433;-81
2021/09/11 05:06:17;;;;;;;37.35;34.53;;;;;;;9.49;100.00;101367.59;5032613;28;20437;-78
2021/09/11 05:08:45;;;;;;;39.63;36.53;;;;;;;9.44;100.00;101366.50;5032793;28;20112;-79
2021/09/11 05:11:12;;;;;;;41.60;38.17;;;;;;;9.51;100.00;101364.78;5035653;28;20114;-81
2021/09/11 05:13:38;;;;;;;42.00;39.25;;;;;;;9.71;100.00;101365.03;5051845;28;20056;-81
2021/09/11 05:16:05;;;;;;;35.92;33.20;;;;;;;9.73;100.00;101361.19;5053014;28;20048;-79
2021/09/11 05:18:33;;;;;;;40.42;37.40;;;;;;;10.06;100.00;101363.44;5052905;28;20049;-81
2021/09/11 05:21:04;;;;;;;37.47;34.75;;;;;;;10.02;100.00;101359.53;5052589;28;20131;-82
2021/09/11 05:23:31;;;;;;;39.17;36.35;;;;;;;9.96;100.00;101357.63;5051788;28;20049;-80
2021/09/11 05:25:59;;;;;;;41.30;38.35;;;;;;;10.12;100.00;101364.53;5047117;28;20049;-79
2021/09/11 05:28:26;;;;;;;39.10;36.55;;;;;;;10.64;100.00;101364.28;5048491;28;20072;-81
2021/09/11 05:30:53;;;;;;;39.75;37.15;;;;;;;10.60;100.00;101359.53;5050532;28;20126;-77
2021/09/11 05:33:19;;;;;;;36.13;33.33;;;;;;;10.90;100.00;101366.34;5051780;28;20433;-79
2021/09/11 05:35:46;;;;;;;35.20;32.55;;;;;;;11.01;100.00;101367.63;5049419;28;20118;-81
2021/09/11 05:38:13;;;;;;;37.03;33.88;;;;;;;11.08;100.00;101352.59;5048690;28;20049;-82
2021/09/11 05:40:40;;;;;;;38.58;35.60;;;;;;;11.08;100.00;101357.09;5053158;28;20130;-79
2021/09/11 05:43:08;;;;;;;36.40;33.67;;;;;;;11.29;100.00;101350.88;5049184;28;20048;-78
2021/09/11 05:45:35;;;;;;;37.45;33.97;;;;;;;11.53;100.00;101345.09;5051984;28;20041;-79
2021/09/11 05:48:02;;;;;;;38.45;35.08;;;;;;;12.00;100.00;101338.13;5048633;28;20044;-79
2021/09/11 05:50:29;;;;;;;37.10;34.50;;;;;;;12.05;100.00;101340.22;5050867;28;20059;-79
2021/09/11 05:52:55;;;;;;;40.88;37.95;;;;;;;12.29;100.00;101341.50;5045625;28;20532;-79
2021/09/11 05:55:22;;;;;;;40.13;36.63;;;;;;;12.46;100.00;101344.59;5049194;28;20444;-81
2021/09/11 05:57:49;;;;;;;39.53;36.38;;;;;;;12.52;100.00;101347.25;5050717;28;20056;-78
2021/09/11 06:00:18;;;;;;;40.58;37.42;;;;;;;12.59;100.00;101344.63;5051327;28;20384;-81
2021/09/11 06:02:44;;;;;;;35.78;33.17;;;;;;;16.07;100.00;101343.94;5046525;28;20114;-80
2021/09/11 06:05:12;;;;;;;36.10;33.72;;;;;;;20.13;100.00;101336.75;5053671;28;20067;-79
2021/09/11 06:07:40;;;;;;;35.40;33.20;;;;;;;20.93;100.00;101336.88;5054357;28;20075;-79
2021/09/11 06:10:07;;;;;;;40.05;37.15;;;;;;;16.10;100.00;101340.81;5043808;28;20083;-81
2021/09/11 06:12:34;;;;;;;33.40;30.90;;;;;;;14.61;100.00;101334.75;5049961;28;20068;-81
2021/09/11 06:15:01;;;;;;;37.53;34.40;;;;;;;13.93;100.00;101340.69;5048084;28;20041;-80
2021/09/11 06:17:29;;;;;;;39.03;35.88;;;;;;;14.13;100.00;101337.91;5051619;28;20473;-80
2021/09/11 06:19:56;;;;;;;36.70;33.45;;;;;;;13.95;100.00;101347.47;5058325;28;20044;-80
2021/09/11 06:22:23;;;;;;;35.47;32.80;;;;;;;14.44;100.00;101334.44;5047021;28;20055;-81
2021/09/11 06:24:49;;;;;;;34.78;32.03;;;;;;;14.38;100.00;101332.63;5050323;28;20049;-79
2021/09/11 06:27:18;;;;;;;36.05;33.35;;;;;;;14.93;100.00;101342.72;5045681;28;20053;-82
2021/09/11 06:29:45;;;;;;;38.15;35.17;;;;;;;15.12;100.00;101339.03;5051138;28;20410;-80
2021/09/11 06:32:11;;;;;;;41.17;38.55;;;;;;;15.31;100.00;101346.06;5045906;28;20044;-79
2021/09/11 06:34:40;;;;;;;40.85;38.15;;;;;;;15.76;100.00;101350.31;5043508;28;20060;-78
2021/09/11 06:37:06;;;;;;;39.20;36.15;;;;;;;15.88;100.00;101337.78;5045309;28;20058;-78
2021/09/11 06:39:33;;;;;;;36.38;33.88;;;;;;;16.38;100.00;101337.50;5046685;28;20045;-81
2021/09/11 06:42:00;;;;;;;36.58;33.03;;;;;;;16.65;100.00;101335.25;5050599;28;20053;-78
2021/09/11 06:44:27;;;;;;;36.47;33.72;;;;;;;16.93;100.00;101334.59;5050826;28;20049;-79
2021/09/11 06:46:53;;;;;;;42.88;39.75;;;;;;;16.96;100.00;101329.81;5051227;28;20451;-79
2021/09/11 06:49:21;;;;;;;37.50;34.25;;;;;;;17.00;100.00;101329.09;5045553;28;20481;-79
2021/09/11 06:51:49;;;;;;;35.97;33.08;;;;;;;17.35;100.00;101326.41;5045468;28;20045;-78
2021/09/11 06:54:16;;;;;;;38.33;34.63;;;;;;;17.68;100.00;101326.81;5045506;28;20041;-79
2021/09/11 06:56:43;;;;;;;40.08;35.83;;;;;;;17.76;100.00;101327.25;5050571;28;20107;-80
2021/09/11 06:59:09;;;;;;;40.63;36.65;;;;;;;18.38;100.00;101321.13;5050324;28;20057;-79
2021/09/11 07:01:36;;;;;;;36.55;33.25;;;;;;;18.49;100.00;101322.94;5050586;28;20061;-82
2021/09/11 07:04:03;;;;;;;37.28;33.88;;;;;;;18.93;100.00;101325.78;5044557;28;20045;-80
2021/09/11 07:06:30;;;;;;;43.15;37.42;;;;;;;19.23;100.00;101325.41;5051376;28;20056;-82
2021/09/11 07:08:58;;;;;;;42.20;38.40;;;;;;;19.60;100.00;101316.72;5048983;28;20044;-79
2021/09/11 07:11:25;;;;;;;34.63;31.83;;;;;;;19.77;100.00;101318.56;5046766;28;20071;-79
2021/09/11 07:13:51;;;;;;;40.10;36.60;;;;;;;19.72;100.00;101322.00;5051692;28;20053;-80
2021/09/11 07:16:18;;;;;;;42.95;39.67;;;;;;;20.08;100.00;101327.78;5049340;28;20448;-83
2021/09/11 07:18:45;;;;;;;36.70;33.80;;;;;;;20.40;100.00;101321.63;5049456;28;20059;-82
2021/09/11 07:21:12;;;;;;;35.80;33.45;;;;;;;20.43;100.00;101323.81;5050608;28;20048;-82
2021/09/11 07:23:38;;;;;;;37.05;34.42;;;;;;;20.78;100.00;101321.38;5046413;28;20048;-83
2021/09/11 07:26:06;;;;;;;37.42;34.55;;;;;;;20.78;100.00;101323.28;5037808;28;20049;-79
2021/09/11 07:28:33;;;;;;;35.22;32.63;;;;;;;20.80;92.30;101321.13;5049793;28;20041;-83
2021/09/11 07:31:01;;;;;;;35.50;32.72;;;;;;;20.69;92.88;101332.94;5043629;28;20477;-82
2021/09/11 07:33:28;;;;;;;35.25;32.25;;;;;;;21.17;96.62;101322.97;5047659;28;20050;-81
2021/09/11 07:35:55;;;;;;;37.97;34.63;;;;;;;21.05;87.08;101329.38;5049271;28;20049;-76
2021/09/11 07:38:23;;;;;;;33.47;30.55;;;;;;;20.70;99.77;101327.28;5050900;28;20209;-77
2021/09/11 07:40:49;;;;;;;36.35;33.35;;;;;;;20.49;100.00;101323.56;5051142;28;20534;-80
2021/09/11 07:43:18;;;;;;;39.97;36.55;;;;;;;20.70;100.00;101335.38;5050389;28;20479;-78
2021/09/11 07:45:46;;;;;;;38.60;35.00;;;;;;;20.92;100.00;101324.47;5050206;28;20052;-79
2021/09/11 07:48:13;;;;;;;35.20;32.70;;;;;;;20.91;100.00;101327.41;5050379;28;20048;-79
2021/09/11 07:50:39;;;;;;;33.30;30.73;;;;;;;20.72;100.00;101327.00;5050466;28;20386;-76
2021/09/11 07:53:06;;;;;;;34.95;32.22;;;;;;;20.81;100.00;101325.44;5050056;28;20927;-77
2021/09/11 07:55:34;;;;;;;35.38;32.50;;;;;;;20.69;98.02;101330.22;5051089;28;20049;-80
2021/09/11 07:58:01;;;;;;;35.63;32.80;;;;;;;21.02;100.00;101329.09;5050463;28;20552;-77
2021/09/11 08:00:29;;;;;;;33.50;30.60;;;;;;;21.52;100.00;101321.56;5050261;28;20052;-79
2021/09/11 08:02:57;;;;;;;36.83;34.03;;;;;;;21.14;98.59;101326.19;5050301;28;20076;-79
2021/09/11 08:05:24;;;;;;;35.70;32.97;;;;;;;21.54;100.00;101322.91;5050152;28;20507;-79
2021/09/11 08:07:51;;;;;;;56.80;51.95;;;;;;;21.73;93.54;101318.66;5051116;28;20480;-79
2021/09/11 08:10:19;;;;;;;60.35;55.10;;;;;;;21.99;94.28;101318.72;5052032;28;20095;-78
2021/09/11 08:12:47;;;;;;;66.00;59.42;;;;;;;22.29;96.32;101320.66;5053754;28;20110;-78
2021/09/11 08:15:15;;;;;;;62.42;55.95;;;;;;;22.29;91.66;101319.88;5053660;28;20100;-77
2021/09/11 08:17:44;;;;;;;65.78;58.97;;;;;;;21.54;93.89;101320.19;5054141;28;20057;-81
2021/09/11 08:20:13;;;;;;;66.40;59.67;;;;;;;22.08;85.94;101314.41;5053823;28;20045;-77
2021/09/11 08:22:40;;;;;;;65.97;59.38;;;;;;;22.30;82.48;101314.19;5048694;28;20154;-77
2021/09/11 08:25:08;;;;;;;63.78;56.97;;;;;;;21.82;82.93;101307.34;5054518;28;20052;-79
2021/09/11 08:27:35;;;;;;;62.13;56.10;;;;;;;22.62;84.23;101304.97;5054096;28;20060;-80
2021/09/11 08:30:02;;;;;;;66.30;59.40;;;;;;;22.38;72.17;101302.81;5054283;28;20049;-76
2021/09/11 08:32:29;;;;;;;66.93;60.10;;;;;;;23.26;69.03;101298.09;5053692;28;20045;-78
2021/09/11 08:34:57;;;;;;;64.55;58.67;;;;;;;22.54;72.16;101289.28;5053572;28;20052;-77
2021/09/11 08:37:24;;;;;;;61.55;55.35;;;;;;;22.98;66.12;101286.78;5053724;28;20114;-79
2021/09/11 08:39:50;;;;;;;61.63;55.42;;;;;;;22.73;62.15;101297.66;5054343;28;20049;-80
2021/09/11 08:42:20;;;;;;;61.50;55.45;;;;;;;23.31;65.05;101285.31;5053691;28;20061;-78
2021/09/11 08:44:47;;;;;;;62.97;56.13;;;;;;;24.49;56.04;101275.66;5053711;28;20057;-77
2021/09/11 08:47:14;;;;;;;62.78;55.95;;;;;;;23.19;60.92;101281.31;5044955;28;20045;-80
2021/09/11 08:49:41;;;;;;;64.00;57.33;;;;;;;23.17;59.64;101291.63;5053354;28;20060;-78
2021/09/11 08:52:09;;;;;;;64.63;57.85;;;;;;;23.81;57.87;101281.84;5053425;28;20052;-78
2021/09/11 08:54:36;;;;;;;65.60;58.75;;;;;;;24.61;56.13;101271.47;5054297;28;20049;-78
2021/09/11 08:57:20;;;;;;;65.88;59.00;;;;;;;23.88;55.24;101277.75;5052984;28;20045;-78
2021/09/11 08:59:47;;;;;;;70.13;62.10;;;;;;;24.45;49.30;101262.66;5046047;28;20619;-79
2021/09/11 09:02:14;;;;;;;65.97;58.88;;;;;;;24.50;51.56;101256.34;5053023;28;20119;-79
2021/09/11 09:04:46;;;;;;;71.80;63.65;;;;;;;24.08;51.28;101263.19;5052761;28;20067;-78
2021/09/11 09:07:29;;;;;;;67.38;60.00;;;;;;;24.63;51.35;101247.56;5052573;28;20055;-79
2021/09/11 09:09:58;;;;;;;65.93;58.65;;;;;;;24.18;50.24;101255.00;5051306;28;20080;-77
2021/09/11 09:12:25;;;;;;;70.00;60.90;;;;;;;24.23;46.83;101252.22;5052939;28;20049;-78
2021/09/11 09:15:00;;;;;;;81.30;74.15;;;;;;;24.33;49.78;101245.09;5052482;28;20473;-78
2021/09/11 09:17:45;;;;;;;83.43;75.53;;;;;;;25.08;47.12;101241.88;5052571;28;20056;-78
2021/09/11 09:20:21;;;;;;;81.93;73.75;;;;;;;24.96;45.33;101230.59;5053458;28;20052;-78
2021/09/11 09:22:51;;;;;;;80.93;73.53;;;;;;;24.08;50.51;101233.34;5047303;28;20387;-78
2021/09/11 09:25:26;;;;;;;77.00;70.03;;;;;;;24.41;48.59;101228.97;5049045;28;20473;-78
2021/09/11 09:27:55;;;;;;;80.38;72.63;;;;;;;23.59;47.73;101228.00;5053156;28;20060;-79
2021/09/11 09:30:24;;;;;;;79.82;72.50;;;;;;;25.69;41.84;101221.22;5052453;28;20045;-78
2021/09/11 09:32:52;;;;;;;82.32;74.55;;;;;;;26.22;41.82;101216.28;5052308;28;20139;-81
2021/09/11 09:35:24;;;;;;;79.43;71.45;;;;;;;26.35;41.99;101211.16;5052804;28;20137;-78
2021/09/11 09:37:58;;;;;;;76.20;69.40;;;;;;;25.17;45.38;101206.72;5052933;28;20118;-77
2021/09/11 09:40:37;;;;;;;74.00;66.35;;;;;;;24.57;47.17;101215.28;5053427;28;20055;-77
2021/09/11 09:43:04;;;;;;;68.97;61.92;;;;;;;26.11;42.59;101211.31;5053371;28;20059;-77
2021/09/11 09:45:32;;;;;;;75.85;68.82;;;;;;;26.07;42.08;101208.41;5052823;28;20477;-77
2021/09/11 09:48:01;;;;;;;77.85;70.18;;;;;;;25.36;41.32;101210.28;5052477;28;20397;-79
2021/09/11 09:50:30;;;;;;;70.13;62.85;;;;;;;24.66;45.30;101208.13;5053034;28;20114;-78
2021/09/11 09:52:59;;;;;;;40.08;36.25;;;;;;;26.75;40.93;101206.91;5052526;28;20465;-78
2021/09/11 09:55:26;;;;;;;39.47;35.97;;;;;;;26.85;40.02;101203.97;5053508;28;20048;-80
2021/09/11 09:57:54;;;;;;;40.92;37.15;;;;;;;26.66;39.10;101197.84;5053067;28;20053;-80
2021/09/11 10:00:21;;;;;;;39.25;36.10;;;;;;;26.10;42.72;101191.47;5050351;28;20057;-79
2021/09/11 10:02:48;;;;;;;37.88;34.47;;;;;;;26.35;42.01;101192.91;5046574;28;20125;-78
2021/09/11 10:05:16;;;;;;;35.20;32.15;;;;;;;26.35;37.73;101192.13;5046729;28;20049;-78
2021/09/11 10:08:05;;;;;;;38.15;34.72;;;;;;;25.53;43.83;101196.16;5050760;28;20049;-79
2021/09/11 10:10:35;;;;;;;41.20;37.47;;;;;;;27.40;38.70;101187.53;5042661;28;20497;-77
2021/09/11 10:13:07;;;;;;;45.40;41.35;;;;;;;25.57;43.36;101189.06;5048609;28;20509;-77
2021/09/11 10:15:35;;;;;;;44.13;40.72;;;;;;;24.78;40.48;101189.53;5051913;28;20048;-81
2021/09/11 10:18:04;;;;;;;41.20;37.72;;;;;;;25.49;42.86;101179.63;5051356;28;20091;-79
2021/09/11 10:21:16;;;;;;;43.22;39.17;;;;;;;27.51;36.35;101187.31;5049225;28;20056;-79
2021/09/11 10:23:43;;;;;;;40.20;36.30;;;;;;;26.67;39.55;101172.19;5049956;28;20048;-77
2021/09/11 10:26:40;;;;;;;43.50;39.90;;;;;;;29.16;34.47;101169.81;5050574;28;20048;-79
2021/09/11 10:29:43;;;;;;;41.30;37.60;;;;;;;28.22;37.21;101179.28;5046927;28;20053;-78
2021/09/11 10:32:18;;;;;;;38.85;35.35;;;;;;;28.58;31.75;101179.16;5031667;28;20478;-79
2021/09/11 10:34:51;;;;;;;38.65;35.00;;;;;;;29.18;32.33;101173.03;5044011;28;20371;-81
2021/09/11 10:37:34;;;;;;;37.63;34.35;;;;;;;28.91;32.77;101160.41;5048374;28;20064;-79
2021/09/11 10:40:28;;;;;;;35.92;32.35;;;;;;;26.55;34.42;101169.19;5042399;28;20084;-80
2021/09/11 10:43:29;;;;;;;41.85;37.95;;;;;;;29.42;31.10;101160.81;5050680;28;20456;-78
2021/09/11 10:46:02;;;;;;;42.80;39.53;;;;;;;28.13;33.92;101156.59;5047490;28;20124;-79
2021/09/11 10:48:50;;;;;;;37.03;33.75;;;;;;;25.58;39.83;101152.59;5053927;28;20463;-78
2021/09/11 10:51:24;;;;;;;37.92;34.78;;;;;;;27.96;33.75;101151.84;5049831;28;20071;-79
2021/09/11 10:54:12;;;;;;;38.30;35.03;;;;;;;28.46;32.22;101146.97;5059759;28;20477;-79
2021/09/11 10:56:45;;;;;;;36.83;33.45;;;;;;;28.27;32.53;101143.66;5053366;28;20049;-78
2021/09/11 10:59:35;;;;;;;43.45;39.40;;;;;;;28.28;33.53;101145.25;5051600;28;20049;-78
2021/09/11 11:02:07;;;;;;;39.85;36.00;;;;;;;28.70;32.55;101146.53;5059445;28;20049;-78
2021/09/11 11:04:35;;;;;;;46.47;42.05;;;;;;;28.24;33.02;101131.44;5050892;28;20048;-78
2021/09/11 11:07:06;;;;;;;41.67;37.97;;;;;;;27.35;35.05;101141.31;5049390;28;20045;-79
2021/09/11 11:09:39;;;;;;;36.60;33.50;;;;;;;27.36;35.23;101131.22;5057304;28;20052;-79
2021/09/11 11:12:07;;;;;;;41.33;37.78;;;;;;;29.01;34.97;101129.22;5046996;28;20504;-78
2021/09/11 11:14:37;;;;;;;37.90;34.22;;;;;;;28.83;33.84;101125.66;5052610;28;20057;-80